Terminal Aerodrome Forecast
Issued by NWS

Home | Current Version | Previous Version | Text Only | Print | Product List | Glossary On
Versions: 1 2 3 4 5 6 7 8 9 10 11 12 13
000
FTUS44 KOUN 301733
TAFHBR
TAF
KHBR 301733Z 3018/3118 22007KT P6SM SCT035
     FM310100 17012KT P6SM BKN250
     FM310900 15009KT P6SM BKN015=

USA.gov is the U.S. government's official web portal to all federal, state and local government web resources and services.